createdAt,value
2023-09-23T00:00:19.310Z,3.00
2023-09-23T00:02:46.227Z,3.63
2023-09-23T00:05:16.359Z,4.38
2023-09-23T00:07:44.559Z,3.28
2023-09-23T00:10:12.537Z,4.10
2023-09-23T00:12:41.710Z,3.20
2023-09-23T00:15:11.906Z,3.33
2023-09-23T00:17:39.236Z,4.68
2023-09-23T00:20:11.310Z,5.55
2023-09-23T00:22:41.445Z,3.10
2023-09-23T00:25:09.269Z,3.45
2023-09-23T00:27:36.366Z,4.03
2023-09-23T00:30:06.098Z,2.75
2023-09-23T00:32:35.989Z,2.50
2023-09-23T00:35:02.986Z,5.22
2023-09-23T00:37:31.711Z,2.13
2023-09-23T00:39:58.602Z,3.22
2023-09-23T00:42:25.452Z,2.88
2023-09-23T00:44:52.262Z,3.47
2023-09-23T00:47:20.672Z,5.18
2023-09-23T00:49:48.391Z,2.92
2023-09-23T00:52:18.049Z,3.05
2023-09-23T00:54:45.806Z,2.72
2023-09-23T00:57:17.960Z,2.72
2023-09-23T00:59:44.732Z,2.60
2023-09-23T01:02:15.320Z,4.32
2023-09-23T01:04:42.254Z,3.10
2023-09-23T01:07:10.698Z,2.00
2023-09-23T01:09:38.507Z,2.20
2023-09-23T01:12:05.839Z,2.03
2023-09-23T01:14:32.905Z,2.13
2023-09-23T01:16:59.801Z,2.50
2023-09-23T01:19:27.115Z,3.42
2023-09-23T01:21:57.267Z,2.33
2023-09-23T01:24:25.293Z,2.83
2023-09-23T01:26:52.491Z,2.20
2023-09-23T01:29:23.855Z,1.90
2023-09-23T01:32:26.496Z,2.38
2023-09-23T01:34:53.964Z,2.67
2023-09-23T01:37:21.112Z,2.35
2023-09-23T01:39:53.440Z,2.22
2023-09-23T01:42:20.725Z,2.05
2023-09-23T01:44:47.534Z,2.10
2023-09-23T01:47:17.308Z,2.35
2023-09-23T01:49:44.794Z,3.20
2023-09-23T01:52:11.579Z,3.22
2023-09-23T01:54:38.364Z,2.85
2023-09-23T01:57:05.230Z,2.72
2023-09-23T01:59:33.451Z,2.38
2023-09-23T02:02:00.937Z,2.33
2023-09-23T02:04:27.784Z,1.98
2023-09-23T02:06:54.537Z,2.30
2023-09-23T02:09:21.605Z,2.45
2023-09-23T02:11:49.289Z,2.25
2023-09-23T02:14:16.069Z,3.42
2023-09-23T02:16:43.458Z,1.42
2023-09-23T02:19:10.342Z,2.97
2023-09-23T02:21:37.097Z,2.55
2023-09-23T02:24:04.055Z,2.58
2023-09-23T02:26:31.121Z,2.28
2023-09-23T02:28:57.993Z,1.90
2023-09-23T02:31:25.520Z,1.83
2023-09-23T02:33:52.342Z,1.98
2023-09-23T02:36:19.148Z,1.70
2023-09-23T02:38:46.195Z,1.40
2023-09-23T02:41:13.197Z,2.88
2023-09-23T02:43:40.078Z,2.03
2023-09-23T02:46:07.883Z,2.92
2023-09-23T02:48:35.051Z,2.00
2023-09-23T02:51:02.261Z,2.13
2023-09-23T02:53:31.782Z,2.60
2023-09-23T02:56:10.086Z,1.80
2023-09-23T02:58:37.061Z,1.40
2023-09-23T03:01:06.305Z,1.85
2023-09-23T03:03:35.054Z,2.15
2023-09-23T03:06:08.819Z,1.90
2023-09-23T03:08:38.604Z,2.08
2023-09-23T03:11:11.065Z,1.58
2023-09-23T03:13:39.058Z,1.15
2023-09-23T03:16:09.907Z,1.67
2023-09-23T03:18:55.957Z,1.10
2023-09-23T03:21:22.762Z,1.73
2023-09-23T03:23:49.558Z,1.40
2023-09-23T03:26:20.262Z,2.53
2023-09-23T03:28:48.148Z,1.73
2023-09-23T03:31:15.810Z,1.48
2023-09-23T03:33:43.959Z,1.48
2023-09-23T03:36:17.701Z,4.15
2023-09-23T03:38:44.928Z,1.98
2023-09-23T03:41:13.220Z,1.45
2023-09-23T03:43:40.646Z,1.17
2023-09-23T03:46:18.174Z,1.55
2023-09-23T03:48:46.127Z,1.52
2023-09-23T03:51:15.843Z,2.83
2023-09-23T03:53:45.577Z,1.90
2023-09-23T03:56:12.639Z,1.48
2023-09-23T03:58:42.344Z,1.52
2023-09-23T04:01:14.943Z,2.05
2023-09-23T04:03:42.806Z,1.10
2023-09-23T04:06:09.805Z,1.27
2023-09-23T04:08:37.208Z,1.42
2023-09-23T04:11:11.489Z,2.90
2023-09-23T04:13:39.268Z,1.85
2023-09-23T04:16:06.761Z,1.45
2023-09-23T04:18:33.930Z,1.45
2023-09-23T04:21:03.881Z,1.50
2023-09-23T04:23:31.420Z,2.22
2023-09-23T04:25:58.966Z,1.10
2023-09-23T04:28:26.012Z,1.40
2023-09-23T04:30:55.543Z,1.30
2023-09-23T04:33:23.985Z,1.40
2023-09-23T04:35:52.470Z,1.52
2023-09-23T04:38:19.485Z,1.52
2023-09-23T04:40:47.449Z,1.45
2023-09-23T04:43:14.441Z,1.35
2023-09-23T04:45:41.267Z,2.60
2023-09-23T04:48:08.439Z,0.85
2023-09-23T04:50:35.802Z,1.50
2023-09-23T04:53:03.860Z,0.70
2023-09-23T04:55:30.689Z,1.38
2023-09-23T04:57:57.532Z,2.50
2023-09-23T05:00:24.303Z,1.10
2023-09-23T05:02:51.386Z,1.23
2023-09-23T05:05:22.160Z,1.52
2023-09-23T05:07:49.099Z,1.38
2023-09-23T05:10:16.030Z,2.38
2023-09-23T05:12:46.330Z,1.42
2023-09-23T05:15:16.305Z,1.30
2023-09-23T05:17:45.309Z,1.65
2023-09-23T05:20:23.247Z,0.80
2023-09-23T05:22:50.153Z,1.38
2023-09-23T05:25:17.353Z,1.02
2023-09-23T05:27:44.751Z,1.10
2023-09-23T05:30:12.589Z,1.13
2023-09-23T05:32:39.525Z,1.25
2023-09-23T05:35:10.992Z,1.10
2023-09-23T05:37:40.623Z,1.30
2023-09-23T05:40:23.059Z,1.30
2023-09-23T05:42:51.551Z,1.10
2023-09-23T05:45:18.968Z,1.02
2023-09-23T05:47:46.683Z,1.65
2023-09-23T05:50:15.647Z,2.25
2023-09-23T05:52:42.861Z,1.15
2023-09-23T05:55:09.759Z,1.17
2023-09-23T05:57:36.602Z,1.42
2023-09-23T06:00:06.642Z,1.13
2023-09-23T06:02:33.707Z,1.55
2023-09-23T06:05:03.669Z,0.82
2023-09-23T06:07:32.881Z,1.40
2023-09-23T06:10:01.009Z,1.48
2023-09-23T06:12:32.045Z,1.30
2023-09-23T06:15:01.132Z,1.15
2023-09-23T06:17:29.718Z,1.00
2023-09-23T06:20:01.180Z,1.13
2023-09-23T06:22:28.846Z,1.77
2023-09-23T06:24:56.081Z,2.65
2023-09-23T06:27:23.002Z,2.08
2023-09-23T06:29:49.783Z,0.85
2023-09-23T06:32:16.697Z,0.98
2023-09-23T06:34:43.646Z,1.75
2023-09-23T06:37:10.535Z,0.80
2023-09-23T06:39:37.337Z,0.73
2023-09-23T06:42:04.309Z,1.73
2023-09-23T06:44:31.231Z,1.33
2023-09-23T06:46:59.812Z,1.38
2023-09-23T06:49:28.033Z,0.98
2023-09-23T06:51:54.780Z,1.20
2023-09-23T06:54:21.589Z,1.05
2023-09-23T06:56:48.445Z,0.50
2023-09-23T06:59:15.347Z,0.50
2023-09-23T07:01:42.135Z,0.90
2023-09-23T07:04:10.287Z,1.55
2023-09-23T07:06:37.456Z,1.00
2023-09-23T07:09:06.344Z,1.05
2023-09-23T07:11:33.459Z,2.42
2023-09-23T07:14:01.932Z,2.28
2023-09-23T07:16:28.972Z,0.60
2023-09-23T07:18:56.658Z,0.63
2023-09-23T07:21:23.440Z,1.15
2023-09-23T07:23:50.637Z,1.42
2023-09-23T07:26:22.260Z,1.25
2023-09-23T07:28:52.788Z,3.28
2023-09-23T07:31:19.816Z,1.25
2023-09-23T07:33:46.914Z,2.17
2023-09-23T07:36:15.018Z,1.23
2023-09-23T07:38:42.574Z,1.05
2023-09-23T07:41:09.478Z,1.25
2023-09-23T07:43:36.520Z,1.13
2023-09-23T07:46:03.543Z,2.05
2023-09-23T07:48:30.402Z,1.15
2023-09-23T07:50:57.295Z,0.77
2023-09-23T07:53:24.164Z,1.17
2023-09-23T07:55:51.051Z,0.98
2023-09-23T07:58:18.154Z,1.27
2023-09-23T08:00:44.970Z,1.70
2023-09-23T08:03:11.944Z,1.67
2023-09-23T08:05:38.991Z,2.45
2023-09-23T08:08:07.467Z,1.67
2023-09-23T08:10:34.276Z,2.05
2023-09-23T08:13:01.071Z,1.88
2023-09-23T08:15:28.013Z,1.25
2023-09-23T08:17:55.050Z,0.73
2023-09-23T08:20:23.853Z,1.17
2023-09-23T08:22:51.160Z,0.80
2023-09-23T08:25:19.744Z,0.90
2023-09-23T08:27:47.544Z,2.17
2023-09-23T08:30:17.642Z,0.77
2023-09-23T08:32:45.558Z,1.15
2023-09-23T08:35:13.087Z,1.08
2023-09-23T08:37:40.086Z,1.23
2023-09-23T08:40:11.978Z,1.20
2023-09-23T08:42:40.141Z,2.60
2023-09-23T08:45:11.698Z,1.00
2023-09-23T08:47:39.521Z,1.75
2023-09-23T08:50:10.193Z,1.15
2023-09-23T08:52:37.875Z,0.68
2023-09-23T08:55:06.866Z,3.05
2023-09-23T08:57:34.170Z,1.15
2023-09-23T09:00:01.096Z,1.35
2023-09-23T09:02:28.073Z,1.10
2023-09-23T09:04:56.756Z,1.20
2023-09-23T09:07:34.605Z,1.25
2023-09-23T09:10:01.848Z,1.40
2023-09-23T09:12:28.768Z,1.33
2023-09-23T09:14:56.524Z,0.68
2023-09-23T09:17:23.410Z,0.73
2023-09-23T09:19:51.201Z,0.73
2023-09-23T09:22:20.687Z,0.57
2023-09-23T09:24:47.990Z,1.45
2023-09-23T09:27:15.759Z,0.95
2023-09-23T09:29:45.138Z,0.80
2023-09-23T09:32:12.659Z,0.60
2023-09-23T09:34:47.832Z,0.98
2023-09-23T09:37:16.125Z,1.13
2023-09-23T09:39:58.313Z,1.40
2023-09-23T09:42:33.684Z,1.70
2023-09-23T09:45:01.239Z,0.75
2023-09-23T09:47:29.549Z,0.80
2023-09-23T09:49:58.343Z,3.70
2023-09-23T09:52:27.264Z,1.75
2023-09-23T09:54:59.503Z,1.30
2023-09-23T09:57:30.377Z,1.17
2023-09-23T10:00:10.238Z,1.63
2023-09-23T10:02:39.265Z,1.50
2023-09-23T10:05:07.248Z,1.00
2023-09-23T10:07:56.702Z,1.52
2023-09-23T10:10:35.748Z,1.40
2023-09-23T10:13:13.045Z,1.30
2023-09-23T10:15:41.821Z,1.55
2023-09-23T10:18:17.902Z,2.53
2023-09-23T10:20:51.615Z,4.47
2023-09-23T10:23:21.271Z,1.42
2023-09-23T10:25:53.566Z,1.30
2023-09-23T10:28:31.283Z,1.83
2023-09-23T10:30:59.847Z,1.58
2023-09-23T10:33:28.453Z,1.75
2023-09-23T10:35:58.550Z,2.50
2023-09-23T10:38:36.815Z,1.48
2023-09-23T10:41:05.275Z,2.20
2023-09-23T10:43:35.388Z,2.22
2023-09-23T10:46:06.445Z,1.48
2023-09-23T10:48:33.996Z,1.65
2023-09-23T10:51:02.476Z,1.30
2023-09-23T10:53:29.560Z,1.15
2023-09-23T10:55:59.188Z,1.42
2023-09-23T10:58:26.499Z,1.52
2023-09-23T11:00:54.129Z,1.58
2023-09-23T11:03:22.715Z,1.25
2023-09-23T11:05:50.194Z,1.45
2023-09-23T11:08:21.527Z,2.28
2023-09-23T11:10:50.477Z,1.48
2023-09-23T11:13:18.084Z,1.08
2023-09-23T11:15:46.546Z,1.77
2023-09-23T11:18:16.575Z,2.03
2023-09-23T11:20:48.414Z,3.15
2023-09-23T11:23:15.569Z,1.98
2023-09-23T11:25:47.829Z,1.05
2023-09-23T11:28:20.812Z,1.50
2023-09-23T11:30:49.710Z,1.17
2023-09-23T11:33:17.442Z,1.00
2023-09-23T11:35:45.449Z,1.58
2023-09-23T11:38:13.943Z,1.73
2023-09-23T11:40:41.582Z,1.83
2023-09-23T11:43:09.714Z,1.70
2023-09-23T11:45:36.731Z,1.40
2023-09-23T11:48:07.149Z,1.90
2023-09-23T11:50:34.373Z,1.63
2023-09-23T11:53:01.213Z,1.25
2023-09-23T11:55:28.531Z,1.20
2023-09-23T11:57:55.602Z,1.30
2023-09-23T12:00:22.630Z,1.42
2023-09-23T12:02:49.545Z,1.25
2023-09-23T12:05:17.808Z,1.13
2023-09-23T12:07:45.616Z,0.82
2023-09-23T12:10:16.640Z,1.17
2023-09-23T12:12:46.550Z,0.93
2023-09-23T12:15:13.375Z,1.52
2023-09-23T12:17:40.324Z,1.70
2023-09-23T12:20:12.756Z,1.27
2023-09-23T12:22:40.245Z,0.93
2023-09-23T12:25:07.992Z,1.25
2023-09-23T12:27:35.420Z,1.02
2023-09-23T12:30:02.436Z,1.20
2023-09-23T12:32:29.861Z,1.38
2023-09-23T12:34:57.482Z,0.85
2023-09-23T12:37:28.236Z,1.17
2023-09-23T12:39:56.908Z,0.80
2023-09-23T12:42:24.367Z,1.25
2023-09-23T12:44:51.229Z,1.05
2023-09-23T12:47:18.110Z,1.20
2023-09-23T12:49:47.995Z,0.65
2023-09-23T12:52:14.773Z,1.05
2023-09-23T12:54:41.611Z,0.75
2023-09-23T12:57:08.446Z,0.60
2023-09-23T12:59:35.309Z,1.50
2023-09-23T13:02:02.781Z,2.00
2023-09-23T13:04:30.446Z,0.85
2023-09-23T13:06:57.206Z,0.98
2023-09-23T13:09:23.988Z,1.48
2023-09-23T13:11:50.857Z,1.02
2023-09-23T13:14:18.086Z,0.80
2023-09-23T13:16:47.731Z,0.63
2023-09-23T13:19:16.431Z,0.93
2023-09-23T13:21:43.386Z,1.75
2023-09-23T13:24:10.267Z,1.15
2023-09-23T13:26:37.162Z,3.28
2023-09-23T13:29:04.952Z,1.13
2023-09-23T13:31:33.106Z,1.63
2023-09-23T13:33:59.951Z,0.90
2023-09-23T13:36:26.912Z,1.30
2023-09-23T13:38:53.747Z,1.00
2023-09-23T13:41:20.594Z,1.05
2023-09-23T13:43:47.397Z,1.17
2023-09-23T13:46:14.615Z,1.20
2023-09-23T13:48:41.596Z,1.33
2023-09-23T13:51:09.459Z,1.73
2023-09-23T13:53:36.298Z,0.90
2023-09-23T13:56:03.864Z,0.73
2023-09-23T13:58:30.859Z,1.63
2023-09-23T14:00:57.791Z,1.13
2023-09-23T14:03:24.772Z,1.02
2023-09-23T14:05:51.650Z,1.05
2023-09-23T14:08:18.425Z,2.58
2023-09-23T14:10:45.266Z,1.95
2023-09-23T14:13:12.461Z,1.20
2023-09-23T14:15:39.253Z,1.05
2023-09-23T14:18:09.001Z,1.60
2023-09-23T14:20:36.190Z,1.60
2023-09-23T14:23:03.101Z,1.58
2023-09-23T14:25:30.340Z,1.38
2023-09-23T14:27:57.224Z,2.13
2023-09-23T14:30:24.027Z,1.27
2023-09-23T14:32:50.919Z,2.42
2023-09-23T14:35:17.754Z,1.65
2023-09-23T14:37:46.249Z,1.13
2023-09-23T14:40:13.433Z,1.55
2023-09-23T14:42:41.014Z,1.35
2023-09-23T14:45:08.432Z,1.77
2023-09-23T14:47:35.273Z,1.58
2023-09-23T14:50:02.285Z,1.55
2023-09-23T14:52:29.146Z,1.02
2023-09-23T14:54:56.298Z,1.38
2023-09-23T14:57:23.120Z,1.52
2023-09-23T14:59:52.692Z,1.88
2023-09-23T15:02:20.163Z,2.88
2023-09-23T15:04:47.279Z,1.52
2023-09-23T15:07:14.145Z,1.80
2023-09-23T15:09:41.223Z,2.60
2023-09-23T15:12:07.982Z,3.55
2023-09-23T15:14:36.608Z,2.50
2023-09-23T15:17:03.789Z,2.65
2023-09-23T15:19:30.592Z,1.55
2023-09-23T15:21:57.376Z,2.35
2023-09-23T15:24:24.190Z,2.10
2023-09-23T15:26:51.183Z,1.55
2023-09-23T15:29:18.057Z,1.17
2023-09-23T15:31:44.910Z,2.10
2023-09-23T15:34:11.683Z,2.03
2023-09-23T15:36:38.488Z,1.85
2023-09-23T15:39:05.805Z,14.98
2023-09-23T15:41:32.792Z,7.40
2023-09-23T15:43:59.689Z,1.85
2023-09-23T15:46:26.472Z,1.20
2023-09-23T15:48:53.237Z,1.30
2023-09-23T15:51:20.889Z,2.00
2023-09-23T15:53:48.495Z,2.72
2023-09-23T15:56:15.479Z,1.52
2023-09-23T15:58:42.490Z,1.73
2023-09-23T16:01:09.457Z,1.65
2023-09-23T16:03:36.737Z,2.80
2023-09-23T16:06:03.937Z,2.50
2023-09-23T16:08:32.079Z,3.10
2023-09-23T16:10:59.077Z,1.50
2023-09-23T16:13:25.915Z,1.77
2023-09-23T16:15:52.841Z,2.42
2023-09-23T16:18:22.970Z,1.70
2023-09-23T16:20:51.958Z,2.35
2023-09-23T16:23:19.610Z,1.40
2023-09-23T16:25:47.171Z,1.63
2023-09-23T16:28:14.136Z,1.63
2023-09-23T16:30:42.976Z,2.13
2023-09-23T16:33:10.014Z,1.83
2023-09-23T16:35:38.169Z,2.67
2023-09-23T16:38:05.263Z,1.88
2023-09-23T16:40:32.112Z,5.20
2023-09-23T16:42:59.038Z,3.00
2023-09-23T16:45:25.879Z,7.85
2023-09-23T16:47:52.775Z,4.10
2023-09-23T16:50:19.770Z,2.42
2023-09-23T16:52:46.768Z,2.92
2023-09-23T16:55:13.543Z,2.03
2023-09-23T16:57:40.570Z,2.95
2023-09-23T17:00:09.066Z,3.15
2023-09-23T17:02:36.049Z,2.95
2023-09-23T17:05:03.170Z,3.33
2023-09-23T17:07:30.118Z,1.60
2023-09-23T17:09:56.900Z,2.08
2023-09-23T17:12:23.691Z,1.50
2023-09-23T17:14:51.528Z,4.68
2023-09-23T17:17:18.464Z,1.92
2023-09-23T17:19:46.495Z,2.80
2023-09-23T17:22:13.344Z,3.03
2023-09-23T17:24:40.272Z,2.38
2023-09-23T17:27:07.043Z,2.35
2023-09-23T17:29:34.659Z,4.63
2023-09-23T17:32:01.544Z,4.63
2023-09-23T17:34:28.379Z,3.47
2023-09-23T17:36:55.223Z,2.83
2023-09-23T17:39:23.691Z,3.75
2023-09-23T17:41:50.843Z,4.82
2023-09-23T17:44:18.042Z,4.93
2023-09-23T17:46:46.526Z,3.10
2023-09-23T17:49:13.838Z,2.85
2023-09-23T17:51:40.727Z,2.60
2023-09-23T17:54:07.770Z,3.03
2023-09-23T17:56:35.085Z,3.38
2023-09-23T17:59:02.083Z,1.88
2023-09-23T18:01:28.921Z,3.25
2023-09-23T18:03:55.876Z,3.00
2023-09-23T18:06:23.019Z,3.05
2023-09-23T18:08:49.901Z,3.00
2023-09-23T18:11:16.815Z,3.00
2023-09-23T18:13:43.749Z,2.90
2023-09-23T18:16:10.618Z,3.97
2023-09-23T18:18:38.030Z,2.00
2023-09-23T18:21:05.423Z,3.03
2023-09-23T18:23:32.992Z,3.75
2023-09-23T18:25:59.827Z,2.55
2023-09-23T18:28:27.415Z,2.60
2023-09-23T18:30:54.232Z,4.05
2023-09-23T18:33:21.105Z,2.55
2023-09-23T18:35:48.310Z,2.72
2023-09-23T18:38:15.237Z,4.53
2023-09-23T18:40:42.007Z,3.92
2023-09-23T18:43:11.057Z,2.92
2023-09-23T18:45:37.885Z,3.33
2023-09-23T18:48:22.532Z,2.67
2023-09-23T18:50:51.937Z,2.13
2023-09-23T18:53:19.007Z,1.77
2023-09-23T18:55:47.145Z,2.42
2023-09-23T18:58:14.044Z,2.72
2023-09-23T19:00:41.172Z,2.55
2023-09-23T19:03:08.513Z,3.63
2023-09-23T19:05:36.221Z,3.50
2023-09-23T19:08:04.024Z,2.97
2023-09-23T19:10:30.847Z,5.18
2023-09-23T19:12:57.717Z,5.15
2023-09-23T19:15:24.551Z,4.05
2023-09-23T19:17:52.107Z,4.65
2023-09-23T19:20:19.086Z,4.65
2023-09-23T19:22:45.958Z,2.78
2023-09-23T19:25:12.781Z,3.22
2023-09-23T19:27:42.242Z,4.85
2023-09-23T19:30:14.462Z,3.60
2023-09-23T19:32:42.855Z,9.43
2023-09-23T19:35:10.434Z,4.18
2023-09-23T19:37:38.752Z,3.35
2023-09-23T19:40:07.338Z,3.08
2023-09-23T19:42:34.715Z,2.70
2023-09-23T19:45:04.711Z,3.58
2023-09-23T19:47:33.091Z,3.40
2023-09-23T19:50:00.782Z,3.50
2023-09-23T19:52:30.332Z,3.10
2023-09-23T19:54:57.880Z,4.18
2023-09-23T19:57:26.281Z,4.05
2023-09-23T19:59:53.646Z,5.32
2023-09-23T20:02:20.694Z,3.63
2023-09-23T20:04:47.601Z,3.05
2023-09-23T20:07:17.366Z,4.00
2023-09-23T20:09:44.625Z,5.22
2023-09-23T20:12:12.171Z,4.28
2023-09-23T20:14:39.154Z,4.38
2023-09-23T20:17:12.236Z,3.47
2023-09-23T20:19:39.147Z,4.35
2023-09-23T20:22:06.962Z,3.97
2023-09-23T20:24:34.641Z,4.15
2023-09-23T20:27:02.286Z,4.65
2023-09-23T20:29:29.128Z,6.22
2023-09-23T20:31:57.044Z,5.90
2023-09-23T20:34:24.954Z,4.97
2023-09-23T20:36:51.910Z,4.03
2023-09-23T20:39:21.238Z,3.78
2023-09-23T20:41:48.424Z,3.80
2023-09-23T20:44:15.599Z,3.05
2023-09-23T20:46:42.482Z,3.88
2023-09-23T20:49:09.363Z,2.95
2023-09-23T20:51:36.147Z,3.67
2023-09-23T20:54:03.089Z,3.70
2023-09-23T20:56:30.069Z,2.85
2023-09-23T20:58:58.273Z,4.60
2023-09-23T21:01:25.621Z,3.72
2023-09-23T21:03:53.845Z,2.80
2023-09-23T21:06:21.222Z,2.85
2023-09-23T21:08:48.884Z,5.70
2023-09-23T21:11:16.168Z,3.67
2023-09-23T21:13:43.040Z,3.75
2023-09-23T21:16:10.577Z,4.68
2023-09-23T21:18:37.828Z,3.72
2023-09-23T21:21:04.653Z,4.80
2023-09-23T21:23:31.472Z,5.05
2023-09-23T21:25:58.399Z,4.43
2023-09-23T21:28:25.163Z,5.82
2023-09-23T21:30:52.379Z,5.07
2023-09-23T21:33:19.529Z,6.25
2023-09-23T21:35:46.370Z,4.53
2023-09-23T21:38:13.776Z,6.22
2023-09-23T21:40:41.606Z,4.43
2023-09-23T21:43:09.044Z,4.50
2023-09-23T21:45:39.297Z,5.60
2023-09-23T21:48:10.273Z,6.90
2023-09-23T21:50:37.455Z,4.18
2023-09-23T21:53:05.893Z,3.80
2023-09-23T21:55:32.694Z,5.00
2023-09-23T21:57:59.502Z,4.57
2023-09-23T22:00:30.489Z,3.75
2023-09-23T22:03:00.542Z,3.80
2023-09-23T22:05:30.677Z,2.63
2023-09-23T22:08:03.076Z,3.55
2023-09-23T22:10:30.488Z,3.75
2023-09-23T22:12:58.275Z,3.80
2023-09-23T22:15:27.231Z,3.38
2023-09-23T22:17:55.276Z,3.58
2023-09-23T22:20:25.736Z,3.22
2023-09-23T22:22:52.974Z,3.35
2023-09-23T22:25:22.179Z,4.88
2023-09-23T22:27:55.176Z,4.47
2023-09-23T22:30:27.000Z,4.68
2023-09-23T22:32:56.953Z,5.85
2023-09-23T22:35:29.482Z,5.90
2023-09-23T22:38:00.958Z,4.35
2023-09-23T22:40:28.046Z,4.18
2023-09-23T22:43:00.696Z,6.63
2023-09-23T22:47:59.644Z,3.92
2023-09-23T22:50:27.635Z,4.63
2023-09-23T22:52:57.131Z,4.60
2023-09-23T22:55:25.095Z,4.35
2023-09-23T22:57:52.356Z,4.15
2023-09-23T23:00:24.690Z,5.57
2023-09-23T23:02:51.526Z,3.58
2023-09-23T23:05:19.005Z,4.38
2023-09-23T23:07:51.083Z,3.38
2023-09-23T23:10:18.850Z,3.53
2023-09-23T23:12:47.854Z,4.00
2023-09-23T23:15:17.739Z,3.95
2023-09-23T23:17:47.873Z,3.42
2023-09-23T23:20:22.771Z,5.38
2023-09-23T23:22:56.746Z,4.90
2023-09-23T23:27:52.350Z,3.88
2023-09-23T23:30:20.387Z,3.63
2023-09-23T23:32:48.207Z,5.13
2023-09-23T23:35:18.040Z,4.68
2023-09-23T23:37:46.701Z,4.32
2023-09-23T23:40:13.549Z,4.05
2023-09-23T23:42:41.380Z,4.53
2023-09-23T23:45:10.426Z,4.90
2023-09-23T23:47:37.284Z,3.70
2023-09-23T23:50:05.147Z,3.90
2023-09-23T23:52:31.989Z,4.18
2023-09-23T23:54:58.758Z,3.85
2023-09-23T23:57:26.155Z,4.60
2023-09-23T23:59:53.768Z,5.25
